createdAt,value
2023-01-20T00:00:01.661Z,990.78
2023-01-20T00:00:11.899Z,990.78
2023-01-20T00:00:22.196Z,990.78
2023-01-20T00:00:32.530Z,990.78
2023-01-20T00:00:42.771Z,990.79
2023-01-20T00:00:53.016Z,990.78
2023-01-20T00:01:03.231Z,990.79
2023-01-20T00:01:13.458Z,990.79
2023-01-20T00:01:23.712Z,990.79
2023-01-20T00:01:33.937Z,990.79
2023-01-20T00:01:44.188Z,990.79
2023-01-20T00:01:54.435Z,990.80
2023-01-20T00:02:04.645Z,990.80
2023-01-20T00:02:14.925Z,990.79
2023-01-20T00:02:25.181Z,990.80
2023-01-20T00:02:35.385Z,990.80
2023-01-20T00:02:45.696Z,990.80
2023-01-20T00:02:56.022Z,990.81
2023-01-20T00:03:06.260Z,990.80
2023-01-20T00:03:16.487Z,990.81
2023-01-20T00:03:26.750Z,990.81
2023-01-20T00:03:36.965Z,990.81
2023-01-20T00:03:47.233Z,990.81
2023-01-20T00:03:57.536Z,990.81
2023-01-20T00:04:07.760Z,990.81
2023-01-20T00:04:18.004Z,990.82
2023-01-20T00:04:28.241Z,990.82
2023-01-20T00:04:38.492Z,990.82
2023-01-20T00:04:48.738Z,990.82
2023-01-20T00:04:59.032Z,990.82
2023-01-20T00:05:09.282Z,990.83
2023-01-20T00:05:19.528Z,990.83
2023-01-20T00:05:29.759Z,990.83
2023-01-20T00:05:39.995Z,990.83
2023-01-20T00:05:50.229Z,990.83
2023-01-20T00:06:00.493Z,990.83
2023-01-20T00:06:10.718Z,990.83
2023-01-20T00:06:20.955Z,990.83
2023-01-20T00:06:31.216Z,990.83
2023-01-20T00:06:41.449Z,990.83
2023-01-20T00:06:51.690Z,990.83
2023-01-20T00:07:01.947Z,990.83
2023-01-20T00:07:12.190Z,990.83
2023-01-20T00:07:22.416Z,990.83
2023-01-20T00:07:32.655Z,990.83
2023-01-20T00:07:42.903Z,990.83
2023-01-20T00:07:53.194Z,990.83
2023-01-20T00:08:03.430Z,990.83
2023-01-20T00:08:13.669Z,990.83
2023-01-20T00:08:23.913Z,990.83
2023-01-20T00:08:34.165Z,990.83
2023-01-20T00:08:44.392Z,990.83
2023-01-20T00:08:54.635Z,990.84
2023-01-20T00:09:04.900Z,990.84
2023-01-20T00:09:15.117Z,990.84
2023-01-20T00:09:25.350Z,990.84
2023-01-20T00:09:35.619Z,990.84
2023-01-20T00:09:45.874Z,990.84
2023-01-20T00:09:56.127Z,990.84
2023-01-20T00:10:06.354Z,990.84
2023-01-20T00:10:16.575Z,990.84
2023-01-20T00:10:26.858Z,990.85
2023-01-20T00:10:37.097Z,990.85
2023-01-20T00:10:47.311Z,990.85
2023-01-20T00:10:57.546Z,990.86
2023-01-20T00:11:07.779Z,990.86
2023-01-20T00:11:18.014Z,990.86
2023-01-20T00:11:28.257Z,990.86
2023-01-20T00:11:38.501Z,990.86
2023-01-20T00:11:48.754Z,990.86
2023-01-20T00:11:58.997Z,990.86
2023-01-20T00:12:09.227Z,990.86
2023-01-20T00:12:19.462Z,990.86
2023-01-20T00:12:29.699Z,990.86
2023-01-20T00:12:39.934Z,990.86
2023-01-20T00:12:50.183Z,990.86
2023-01-20T00:13:00.418Z,990.86
2023-01-20T00:13:10.658Z,990.86
2023-01-20T00:13:20.902Z,990.86
2023-01-20T00:13:31.148Z,990.86
2023-01-20T00:13:41.376Z,990.86
2023-01-20T00:13:51.624Z,990.86
2023-01-20T00:14:01.871Z,990.85
2023-01-20T00:14:12.098Z,990.86
2023-01-20T00:14:22.341Z,990.86
2023-01-20T00:14:32.572Z,990.86
2023-01-20T00:14:42.806Z,990.87
2023-01-20T00:14:53.035Z,990.87
2023-01-20T00:15:03.280Z,990.88
2023-01-20T00:15:13.892Z,990.87
2023-01-20T00:15:23.798Z,990.88
2023-01-20T00:15:34.043Z,990.88
2023-01-20T00:15:44.310Z,990.88
2023-01-20T00:15:54.559Z,990.89
2023-01-20T00:16:04.819Z,990.89
2023-01-20T00:16:15.116Z,990.89
2023-01-20T00:16:25.318Z,990.89
2023-01-20T00:16:35.575Z,990.89
2023-01-20T00:16:45.799Z,990.89
2023-01-20T00:16:56.037Z,990.90
2023-01-20T00:17:06.309Z,990.90
2023-01-20T00:17:16.537Z,990.90
2023-01-20T00:17:26.763Z,990.90
2023-01-20T00:17:37.000Z,990.90
2023-01-20T00:17:47.256Z,990.90
2023-01-20T00:17:57.501Z,990.90
2023-01-20T00:18:07.730Z,990.90
2023-01-20T00:18:17.987Z,990.90
2023-01-20T00:18:28.228Z,990.90
2023-01-20T00:18:38.480Z,990.91
2023-01-20T00:18:48.713Z,990.91
2023-01-20T00:18:58.956Z,990.91
2023-01-20T00:19:09.182Z,990.91
2023-01-20T00:19:19.426Z,990.91
2023-01-20T00:19:29.664Z,990.91
2023-01-20T00:19:39.918Z,990.91
2023-01-20T00:19:50.127Z,990.91
2023-01-20T00:20:00.382Z,990.91
2023-01-20T00:20:10.605Z,990.91
2023-01-20T00:20:20.837Z,990.91
2023-01-20T00:20:31.151Z,990.91
2023-01-20T00:20:41.366Z,990.91
2023-01-20T00:20:51.605Z,990.91
2023-01-20T00:21:01.834Z,990.91
2023-01-20T00:21:12.077Z,990.91
2023-01-20T00:21:22.324Z,990.91
2023-01-20T00:21:32.547Z,990.92
2023-01-20T00:21:42.776Z,990.92
2023-01-20T00:21:53.009Z,990.92
2023-01-20T00:22:03.278Z,990.92
2023-01-20T00:22:13.482Z,990.92
2023-01-20T00:22:23.721Z,990.92
2023-01-20T00:22:33.948Z,990.93
2023-01-20T00:22:44.259Z,990.93
2023-01-20T00:22:54.486Z,990.94
2023-01-20T00:23:04.739Z,990.94
2023-01-20T00:23:15.001Z,990.94
2023-01-20T00:23:25.236Z,990.95
2023-01-20T00:23:35.467Z,990.95
2023-01-20T00:23:45.698Z,990.95
2023-01-20T00:23:55.942Z,990.95
2023-01-20T00:24:06.174Z,990.96
2023-01-20T00:24:16.407Z,990.96
2023-01-20T00:24:26.652Z,990.96
2023-01-20T00:24:36.888Z,990.96
2023-01-20T00:24:47.131Z,990.96
2023-01-20T00:24:57.361Z,990.96
2023-01-20T00:25:07.593Z,990.96
2023-01-20T00:25:17.829Z,990.96
2023-01-20T00:25:28.073Z,990.97
2023-01-20T00:25:38.315Z,990.97
2023-01-20T00:25:48.551Z,990.98
2023-01-20T00:25:58.782Z,990.97
2023-01-20T00:26:09.024Z,990.98
2023-01-20T00:26:19.289Z,990.98
2023-01-20T00:26:29.496Z,990.98
2023-01-20T00:26:39.740Z,990.98
2023-01-20T00:26:49.980Z,990.98
2023-01-20T00:27:00.217Z,990.97
2023-01-20T00:27:10.456Z,990.97
2023-01-20T00:27:20.688Z,990.98
2023-01-20T00:27:30.926Z,990.97
2023-01-20T00:27:41.162Z,990.97
2023-01-20T00:27:51.413Z,990.97
2023-01-20T00:28:01.643Z,990.97
2023-01-20T00:28:11.885Z,990.97
2023-01-20T00:28:22.125Z,990.97
2023-01-20T00:28:32.357Z,990.97
2023-01-20T00:28:42.622Z,990.97
2023-01-20T00:28:52.871Z,990.98
2023-01-20T00:29:03.105Z,990.98
2023-01-20T00:29:13.364Z,990.98
2023-01-20T00:29:23.577Z,990.98
2023-01-20T00:29:33.819Z,990.99
2023-01-20T00:29:44.062Z,990.99
2023-01-20T00:29:54.295Z,990.99
2023-01-20T00:30:04.536Z,990.99
2023-01-20T00:30:14.816Z,990.99
2023-01-20T00:30:25.065Z,990.99
2023-01-20T00:30:35.436Z,991.00
2023-01-20T00:30:45.707Z,991.00
2023-01-20T00:30:56.123Z,991.00
2023-01-20T00:31:06.174Z,991.00
2023-01-20T00:31:16.454Z,991.00
2023-01-20T00:31:26.742Z,991.00
2023-01-20T00:31:37.005Z,991.00
2023-01-20T00:31:47.265Z,991.00
2023-01-20T00:31:57.525Z,991.00
2023-01-20T00:32:07.765Z,991.00
2023-01-20T00:32:18.022Z,991.00
2023-01-20T00:32:28.241Z,991.01
2023-01-20T00:32:38.487Z,991.01
2023-01-20T00:32:48.760Z,991.01
2023-01-20T00:32:58.999Z,991.01
2023-01-20T00:33:09.243Z,991.01
2023-01-20T00:33:19.481Z,991.02
2023-01-20T00:33:29.712Z,991.02
2023-01-20T00:33:39.962Z,991.02
2023-01-20T00:33:50.188Z,991.02
2023-01-20T00:34:00.433Z,991.02
2023-01-20T00:34:10.687Z,991.02
2023-01-20T00:34:20.922Z,991.02
2023-01-20T00:34:31.151Z,991.02
2023-01-20T00:34:41.394Z,991.02
2023-01-20T00:34:51.658Z,991.02
2023-01-20T00:35:01.922Z,991.03
2023-01-20T00:35:12.562Z,991.03
2023-01-20T00:35:22.493Z,991.03
2023-01-20T00:35:32.724Z,991.03
2023-01-20T00:35:42.960Z,991.03
2023-01-20T00:35:53.203Z,991.03
2023-01-20T00:36:03.431Z,991.03
2023-01-20T00:36:13.670Z,991.03
2023-01-20T00:36:23.917Z,991.03
2023-01-20T00:36:34.157Z,991.03
2023-01-20T00:36:44.379Z,991.03
2023-01-20T00:36:54.613Z,991.03
2023-01-20T00:37:04.848Z,991.04
2023-01-20T00:37:15.085Z,991.03
2023-01-20T00:37:25.319Z,991.04
2023-01-20T00:37:35.551Z,991.04
2023-01-20T00:37:45.806Z,991.04
2023-01-20T00:37:56.039Z,991.05
2023-01-20T00:38:06.297Z,991.05
2023-01-20T00:38:16.508Z,991.05
2023-01-20T00:38:26.783Z,991.05
2023-01-20T00:38:36.996Z,991.05
2023-01-20T00:38:47.235Z,991.05
2023-01-20T00:38:57.485Z,991.06
2023-01-20T00:39:07.716Z,991.06
2023-01-20T00:39:17.964Z,991.06
2023-01-20T00:39:28.266Z,991.07
2023-01-20T00:39:38.501Z,991.07
2023-01-20T00:39:48.721Z,991.07
2023-01-20T00:39:58.948Z,991.07
2023-01-20T00:40:09.197Z,991.07
2023-01-20T00:40:19.443Z,991.07
2023-01-20T00:40:29.677Z,991.07
2023-01-20T00:40:39.913Z,991.07
2023-01-20T00:40:50.145Z,991.08
2023-01-20T00:41:00.388Z,991.08
2023-01-20T00:41:10.654Z,991.08
2023-01-20T00:41:20.874Z,991.08
2023-01-20T00:41:31.098Z,991.08
2023-01-20T00:41:41.333Z,991.09
2023-01-20T00:41:51.573Z,991.09
2023-01-20T00:42:01.811Z,991.09
2023-01-20T00:42:12.041Z,991.09
2023-01-20T00:42:22.274Z,991.09
2023-01-20T00:42:32.520Z,991.10
2023-01-20T00:42:42.751Z,991.10
2023-01-20T00:42:53.012Z,991.10
2023-01-20T00:43:03.245Z,991.10
2023-01-20T00:43:13.484Z,991.10
2023-01-20T00:43:23.738Z,991.10
2023-01-20T00:43:33.965Z,991.11
2023-01-20T00:43:44.211Z,991.11
2023-01-20T00:43:54.457Z,991.11
2023-01-20T00:44:04.673Z,991.11
2023-01-20T00:44:14.913Z,991.11
2023-01-20T00:44:25.143Z,991.12
2023-01-20T00:44:35.378Z,991.12
2023-01-20T00:44:45.646Z,991.12
2023-01-20T00:44:55.880Z,991.13
2023-01-20T00:45:06.108Z,991.13
2023-01-20T00:45:16.342Z,991.13
2023-01-20T00:45:26.585Z,991.13
2023-01-20T00:45:36.840Z,991.13
2023-01-20T00:45:47.075Z,991.13
2023-01-20T00:45:57.322Z,991.14
2023-01-20T00:46:07.560Z,991.14
2023-01-20T00:46:17.850Z,991.14
2023-01-20T00:46:28.154Z,991.14
2023-01-20T00:46:38.439Z,991.14
2023-01-20T00:46:48.781Z,991.15
2023-01-20T00:46:59.002Z,991.15
2023-01-20T00:47:09.250Z,991.15
2023-01-20T00:47:19.536Z,991.16
2023-01-20T00:47:29.729Z,991.15
2023-01-20T00:47:39.969Z,991.16
2023-01-20T00:47:50.258Z,991.16
2023-01-20T00:48:00.492Z,991.16
2023-01-20T00:48:10.734Z,991.16
2023-01-20T00:48:20.963Z,991.17
2023-01-20T00:48:31.214Z,991.17
2023-01-20T00:48:41.442Z,991.17
2023-01-20T00:48:51.679Z,991.17
2023-01-20T00:49:01.935Z,991.17
2023-01-20T00:49:12.175Z,991.17
2023-01-20T00:49:22.401Z,991.18
2023-01-20T00:49:32.631Z,991.18
2023-01-20T00:49:42.869Z,991.18
2023-01-20T00:49:53.113Z,991.18
2023-01-20T00:50:03.357Z,991.18
2023-01-20T00:50:13.595Z,991.18
2023-01-20T00:50:23.843Z,991.18
2023-01-20T00:50:34.081Z,991.19
2023-01-20T00:50:44.320Z,991.18
2023-01-20T00:50:54.556Z,991.19
2023-01-20T00:51:04.791Z,991.19
2023-01-20T00:51:15.029Z,991.19
2023-01-20T00:51:25.292Z,991.19
2023-01-20T00:51:35.538Z,991.20
2023-01-20T00:51:45.767Z,991.20
2023-01-20T00:51:56.007Z,991.20
2023-01-20T00:52:06.243Z,991.21
2023-01-20T00:52:16.494Z,991.21
2023-01-20T00:52:26.718Z,991.21
2023-01-20T00:52:36.967Z,991.22
2023-01-20T00:52:47.246Z,991.22
2023-01-20T00:52:57.480Z,991.22
2023-01-20T00:53:07.724Z,991.23
2023-01-20T00:53:17.977Z,991.23
2023-01-20T00:53:28.215Z,991.23
2023-01-20T00:53:38.452Z,991.23
2023-01-20T00:53:48.676Z,991.23
2023-01-20T00:53:58.928Z,991.23
2023-01-20T00:54:09.179Z,991.23
2023-01-20T00:54:19.420Z,991.24
2023-01-20T00:54:29.663Z,991.24
2023-01-20T00:54:39.883Z,991.24
2023-01-20T00:54:50.118Z,991.24
2023-01-20T00:55:00.370Z,991.25
2023-01-20T00:55:10.759Z,991.24
2023-01-20T00:55:20.961Z,991.25
2023-01-20T00:55:31.196Z,991.25
2023-01-20T00:55:41.427Z,991.26
2023-01-20T00:55:51.668Z,991.26
2023-01-20T00:56:01.907Z,991.26
2023-01-20T00:56:12.144Z,991.26
2023-01-20T00:56:22.374Z,991.26
2023-01-20T00:56:32.611Z,991.26
2023-01-20T00:56:42.855Z,991.26
2023-01-20T00:56:53.092Z,991.26
2023-01-20T00:57:03.333Z,991.26
2023-01-20T00:57:13.573Z,991.27
2023-01-20T00:57:23.810Z,991.27
2023-01-20T00:57:34.066Z,991.27
2023-01-20T00:57:44.320Z,991.27
2023-01-20T00:57:54.543Z,991.27
2023-01-20T00:58:04.803Z,991.26
2023-01-20T00:58:15.026Z,991.27
2023-01-20T00:58:25.278Z,991.27
2023-01-20T00:58:35.510Z,991.27
2023-01-20T00:58:45.739Z,991.27
2023-01-20T00:58:56.002Z,991.27
2023-01-20T00:59:06.240Z,991.27
2023-01-20T00:59:16.470Z,991.27
2023-01-20T00:59:26.706Z,991.27
2023-01-20T00:59:36.949Z,991.27
2023-01-20T00:59:47.179Z,991.27
2023-01-20T00:59:57.420Z,991.28
2023-01-20T01:00:07.648Z,991.28
2023-01-20T01:00:17.883Z,991.28
2023-01-20T01:00:28.188Z,991.28
2023-01-20T01:00:38.421Z,991.28
2023-01-20T01:00:48.749Z,991.28
2023-01-20T01:00:59.224Z,991.29
2023-01-20T01:01:09.394Z,991.29
2023-01-20T01:01:19.819Z,991.29
2023-01-20T01:01:30.141Z,991.30
2023-01-20T01:01:40.457Z,991.30
2023-01-20T01:01:50.715Z,991.30
2023-01-20T01:02:01.137Z,991.31
2023-01-20T01:02:11.375Z,991.31
2023-01-20T01:02:21.792Z,991.31
2023-01-20T01:02:32.096Z,991.32
2023-01-20T01:02:42.411Z,991.32
2023-01-20T01:02:54.914Z,991.32
2023-01-20T01:03:02.942Z,991.33
2023-01-20T01:03:13.194Z,991.33
2023-01-20T01:03:23.422Z,991.33
2023-01-20T01:03:33.654Z,991.34
2023-01-20T01:03:43.949Z,991.34
2023-01-20T01:03:54.163Z,991.34
2023-01-20T01:04:04.443Z,991.34
2023-01-20T01:04:14.688Z,991.34
2023-01-20T01:04:24.922Z,991.35
2023-01-20T01:04:35.172Z,991.36
2023-01-20T01:04:45.402Z,991.35
2023-01-20T01:04:55.644Z,991.36
2023-01-20T01:05:05.875Z,991.36
2023-01-20T01:05:16.108Z,991.36
2023-01-20T01:05:26.354Z,991.37
2023-01-20T01:05:36.580Z,991.36
2023-01-20T01:05:46.818Z,991.37
2023-01-20T01:05:57.062Z,991.37
2023-01-20T01:06:07.310Z,991.37
2023-01-20T01:06:17.530Z,991.37
2023-01-20T01:06:27.762Z,991.37
2023-01-20T01:06:37.995Z,991.37
2023-01-20T01:06:48.234Z,991.37
2023-01-20T01:06:58.471Z,991.38
2023-01-20T01:07:08.704Z,991.38
2023-01-20T01:07:18.948Z,991.38
2023-01-20T01:07:29.177Z,991.39
2023-01-20T01:07:39.430Z,991.39
2023-01-20T01:07:49.699Z,991.39
2023-01-20T01:07:59.924Z,991.39
2023-01-20T01:08:10.158Z,991.39
2023-01-20T01:08:20.414Z,991.39
2023-01-20T01:08:30.673Z,991.40
2023-01-20T01:08:40.881Z,991.40
2023-01-20T01:08:51.125Z,991.41
2023-01-20T01:09:01.358Z,991.41
2023-01-20T01:09:11.595Z,991.41
2023-01-20T01:09:21.836Z,991.42
2023-01-20T01:09:32.067Z,991.42
2023-01-20T01:09:42.311Z,991.42
2023-01-20T01:09:52.602Z,991.42
2023-01-20T01:10:02.816Z,991.43
2023-01-20T01:10:13.063Z,991.43
2023-01-20T01:10:23.310Z,991.43
2023-01-20T01:10:33.532Z,991.43
2023-01-20T01:10:43.816Z,991.43
2023-01-20T01:10:54.015Z,991.44
2023-01-20T01:11:04.260Z,991.44
2023-01-20T01:11:14.515Z,991.44
2023-01-20T01:11:24.726Z,991.44
2023-01-20T01:11:34.976Z,991.45
2023-01-20T01:11:45.197Z,991.45
2023-01-20T01:11:55.440Z,991.45
2023-01-20T01:12:05.670Z,991.45
2023-01-20T01:12:15.912Z,991.45
2023-01-20T01:12:26.148Z,991.45
2023-01-20T01:12:36.393Z,991.45
2023-01-20T01:12:46.626Z,991.46
2023-01-20T01:12:56.870Z,991.45
2023-01-20T01:13:07.100Z,991.46
2023-01-20T01:13:17.337Z,991.46
2023-01-20T01:13:27.586Z,991.45
2023-01-20T01:13:37.841Z,991.46
2023-01-20T01:13:48.062Z,991.46
2023-01-20T01:13:58.306Z,991.46
2023-01-20T01:14:08.536Z,991.46
2023-01-20T01:14:18.773Z,991.47
2023-01-20T01:14:29.013Z,991.47
2023-01-20T01:14:39.250Z,991.47
2023-01-20T01:14:49.491Z,991.47
2023-01-20T01:14:59.728Z,991.47
2023-01-20T01:15:09.977Z,991.47
2023-01-20T01:15:20.211Z,991.47
2023-01-20T01:15:30.446Z,991.47
2023-01-20T01:15:40.697Z,991.47
2023-01-20T01:15:50.989Z,991.48
2023-01-20T01:16:01.276Z,991.47
2023-01-20T01:16:11.529Z,991.47
2023-01-20T01:16:21.810Z,991.48
2023-01-20T01:16:32.139Z,991.47
2023-01-20T01:16:42.348Z,991.47
2023-01-20T01:16:52.610Z,991.48
2023-01-20T01:17:02.832Z,991.47
2023-01-20T01:17:13.067Z,991.48
2023-01-20T01:17:23.303Z,991.48
2023-01-20T01:17:33.553Z,991.47
2023-01-20T01:17:43.785Z,991.48
2023-01-20T01:17:54.022Z,991.47
2023-01-20T01:18:04.264Z,991.47
2023-01-20T01:18:14.507Z,991.47
2023-01-20T01:18:24.739Z,991.47
2023-01-20T01:18:34.984Z,991.47
2023-01-20T01:18:45.290Z,991.47
2023-01-20T01:18:55.546Z,991.47
2023-01-20T01:19:05.789Z,991.46
2023-01-20T01:19:15.999Z,991.46
2023-01-20T01:19:26.239Z,991.46
2023-01-20T01:19:36.476Z,991.47
2023-01-20T01:19:46.729Z,991.47
2023-01-20T01:19:56.956Z,991.46
2023-01-20T01:20:07.199Z,991.46
2023-01-20T01:20:17.439Z,991.47
2023-01-20T01:20:27.684Z,991.46
2023-01-20T01:20:37.918Z,991.47
2023-01-20T01:20:48.157Z,991.47
2023-01-20T01:20:58.390Z,991.47
2023-01-20T01:21:08.659Z,991.47
2023-01-20T01:21:18.877Z,991.48
2023-01-20T01:21:29.125Z,991.48
2023-01-20T01:21:39.361Z,991.48
2023-01-20T01:21:49.595Z,991.48
2023-01-20T01:21:59.848Z,991.48
2023-01-20T01:22:10.098Z,991.49
2023-01-20T01:22:20.352Z,991.49
2023-01-20T01:22:30.566Z,991.50
2023-01-20T01:22:40.812Z,991.50
2023-01-20T01:22:51.063Z,991.50
2023-01-20T01:23:01.291Z,991.50
2023-01-20T01:23:11.525Z,991.51
2023-01-20T01:23:21.763Z,991.51
2023-01-20T01:23:32.007Z,991.51
2023-01-20T01:23:42.264Z,991.52
2023-01-20T01:23:52.485Z,991.52
2023-01-20T01:24:02.727Z,991.52
2023-01-20T01:24:12.957Z,991.53
2023-01-20T01:24:23.194Z,991.53
2023-01-20T01:24:33.432Z,991.53
2023-01-20T01:24:43.676Z,991.53
2023-01-20T01:24:53.928Z,991.53
2023-01-20T01:25:04.161Z,991.54
2023-01-20T01:25:14.850Z,991.54
2023-01-20T01:25:24.773Z,991.54
2023-01-20T01:25:35.019Z,991.55
2023-01-20T01:25:45.256Z,991.55
2023-01-20T01:25:55.482Z,991.55
2023-01-20T01:26:05.733Z,991.56
2023-01-20T01:26:15.971Z,991.56
2023-01-20T01:26:26.229Z,991.56
2023-01-20T01:26:36.446Z,991.56
2023-01-20T01:26:46.697Z,991.56
2023-01-20T01:26:56.930Z,991.57
2023-01-20T01:27:07.169Z,991.56
2023-01-20T01:27:17.396Z,991.57
2023-01-20T01:27:27.638Z,991.57
2023-01-20T01:27:37.919Z,991.56
2023-01-20T01:27:48.165Z,991.57
2023-01-20T01:27:58.398Z,991.57
2023-01-20T01:28:08.635Z,991.57
2023-01-20T01:28:18.866Z,991.57
2023-01-20T01:28:29.113Z,991.56
2023-01-20T01:28:39.335Z,991.56
2023-01-20T01:28:49.570Z,991.56
2023-01-20T01:28:59.863Z,991.57
2023-01-20T01:29:10.079Z,991.56
2023-01-20T01:29:20.333Z,991.56
2023-01-20T01:29:30.562Z,991.57
2023-01-20T01:29:40.801Z,991.56
2023-01-20T01:29:51.046Z,991.57
2023-01-20T01:30:01.288Z,991.57
2023-01-20T01:30:11.508Z,991.57
2023-01-20T01:30:21.755Z,991.57
2023-01-20T01:30:32.027Z,991.57
2023-01-20T01:30:42.319Z,991.57
2023-01-20T01:30:52.587Z,991.57
2023-01-20T01:31:03.012Z,991.57
2023-01-20T01:31:13.070Z,991.57
2023-01-20T01:31:23.320Z,991.57
2023-01-20T01:31:33.588Z,991.57
2023-01-20T01:31:43.824Z,991.58
2023-01-20T01:31:54.064Z,991.58
2023-01-20T01:32:04.307Z,991.58
2023-01-20T01:32:14.540Z,991.57
2023-01-20T01:32:24.807Z,991.57
2023-01-20T01:32:35.016Z,991.57
2023-01-20T01:32:45.282Z,991.57
2023-01-20T01:32:55.507Z,991.57
2023-01-20T01:33:05.753Z,991.57
2023-01-20T01:33:16.005Z,991.58
2023-01-20T01:33:26.230Z,991.57
2023-01-20T01:33:36.474Z,991.58
2023-01-20T01:33:46.714Z,991.58
2023-01-20T01:33:56.953Z,991.58
2023-01-20T01:34:07.184Z,991.58
2023-01-20T01:34:17.467Z,991.58
2023-01-20T01:34:27.727Z,991.58
2023-01-20T01:34:37.952Z,991.58
2023-01-20T01:34:48.188Z,991.58
2023-01-20T01:34:58.434Z,991.58
2023-01-20T01:35:08.669Z,991.58
2023-01-20T01:35:18.925Z,991.58
2023-01-20T01:35:29.152Z,991.58
2023-01-20T01:35:39.400Z,991.58
2023-01-20T01:35:49.646Z,991.57
2023-01-20T01:35:59.916Z,991.58
2023-01-20T01:36:10.123Z,991.58
2023-01-20T01:36:20.360Z,991.58
2023-01-20T01:36:30.595Z,991.58
2023-01-20T01:36:40.842Z,991.58
2023-01-20T01:36:51.071Z,991.58
2023-01-20T01:37:01.313Z,991.58
2023-01-20T01:37:11.565Z,991.59
2023-01-20T01:37:21.783Z,991.58
2023-01-20T01:37:32.011Z,991.59
2023-01-20T01:37:42.254Z,991.59
2023-01-20T01:37:52.504Z,991.59
2023-01-20T01:38:02.740Z,991.59
2023-01-20T01:38:12.970Z,991.59
2023-01-20T01:38:23.210Z,991.59
2023-01-20T01:38:33.463Z,991.59
2023-01-20T01:38:43.691Z,991.59
2023-01-20T01:38:57.148Z,991.59
2023-01-20T01:39:05.343Z,991.59
2023-01-20T01:39:14.728Z,991.59
2023-01-20T01:39:24.978Z,991.59
2023-01-20T01:39:35.209Z,991.60
2023-01-20T01:39:45.467Z,991.60
2023-01-20T01:39:55.682Z,991.60
2023-01-20T01:40:05.916Z,991.60
2023-01-20T01:40:16.165Z,991.60
2023-01-20T01:40:26.406Z,991.60
2023-01-20T01:40:36.623Z,991.60
2023-01-20T01:40:46.875Z,991.60
2023-01-20T01:40:57.106Z,991.60
2023-01-20T01:41:07.360Z,991.60
2023-01-20T01:41:17.598Z,991.59
2023-01-20T01:41:27.853Z,991.59
2023-01-20T01:41:38.070Z,991.59
2023-01-20T01:41:48.309Z,991.59
2023-01-20T01:41:58.544Z,991.60
2023-01-20T01:42:08.799Z,991.59
2023-01-20T01:42:19.029Z,991.59
2023-01-20T01:42:29.265Z,991.59
2023-01-20T01:42:41.928Z,991.60
2023-01-20T01:42:49.833Z,991.59
2023-01-20T01:43:00.081Z,991.60
2023-01-20T01:43:10.304Z,991.59
2023-01-20T01:43:20.535Z,991.60
2023-01-20T01:43:30.809Z,991.59
2023-01-20T01:43:41.029Z,991.60
2023-01-20T01:43:51.254Z,991.59
2023-01-20T01:44:01.488Z,991.59
2023-01-20T01:44:11.739Z,991.59
2023-01-20T01:44:21.968Z,991.60
2023-01-20T01:44:32.206Z,991.60
2023-01-20T01:44:42.437Z,991.59
2023-01-20T01:44:52.685Z,991.60
2023-01-20T01:45:02.920Z,991.59
2023-01-20T01:45:13.871Z,991.59
2023-01-20T01:45:23.435Z,991.59
2023-01-20T01:45:33.713Z,991.59
2023-01-20T01:45:44.012Z,991.59
2023-01-20T01:45:54.360Z,991.59
2023-01-20T01:46:04.639Z,991.59
2023-01-20T01:46:14.857Z,991.59
2023-01-20T01:46:25.102Z,991.59
2023-01-20T01:46:35.352Z,991.59
2023-01-20T01:46:45.595Z,991.60
2023-01-20T01:46:55.823Z,991.60
2023-01-20T01:47:06.050Z,991.60
2023-01-20T01:47:16.293Z,991.60
2023-01-20T01:47:26.524Z,991.60
2023-01-20T01:47:36.764Z,991.60
2023-01-20T01:47:47.028Z,991.60
2023-01-20T01:47:57.247Z,991.60
2023-01-20T01:48:07.496Z,991.61
2023-01-20T01:48:17.723Z,991.61
2023-01-20T01:48:27.964Z,991.61
2023-01-20T01:48:38.211Z,991.61
2023-01-20T01:48:48.429Z,991.61
2023-01-20T01:48:58.670Z,991.61
2023-01-20T01:49:08.909Z,991.62
2023-01-20T01:49:19.141Z,991.62
2023-01-20T01:49:29.370Z,991.61
2023-01-20T01:49:39.606Z,991.61
2023-01-20T01:49:49.897Z,991.61
2023-01-20T01:50:00.135Z,991.62
2023-01-20T01:50:10.330Z,991.62
2023-01-20T01:50:20.563Z,991.62
2023-01-20T01:50:30.815Z,991.62
2023-01-20T01:50:41.057Z,991.62
2023-01-20T01:50:51.285Z,991.62
2023-01-20T01:51:01.556Z,991.63
2023-01-20T01:51:11.787Z,991.63
2023-01-20T01:51:22.061Z,991.63
2023-01-20T01:51:32.274Z,991.63
2023-01-20T01:51:42.516Z,991.63
2023-01-20T01:51:52.739Z,991.63
2023-01-20T01:52:02.992Z,991.64
2023-01-20T01:52:13.223Z,991.64
2023-01-20T01:52:23.474Z,991.64
2023-01-20T01:52:33.712Z,991.64
2023-01-20T01:52:43.951Z,991.65
2023-01-20T01:52:54.204Z,991.65
2023-01-20T01:53:04.436Z,991.66
2023-01-20T01:53:14.680Z,991.66
2023-01-20T01:53:24.923Z,991.67
2023-01-20T01:53:35.187Z,991.67
2023-01-20T01:53:45.426Z,991.68
2023-01-20T01:53:55.657Z,991.69
2023-01-20T01:54:05.891Z,991.69
2023-01-20T01:54:16.127Z,991.70
2023-01-20T01:54:26.371Z,991.71
2023-01-20T01:54:36.607Z,991.71
2023-01-20T01:54:46.835Z,991.72
2023-01-20T01:54:57.079Z,991.72
2023-01-20T01:55:07.309Z,991.73
2023-01-20T01:55:17.556Z,991.73
2023-01-20T01:55:27.800Z,991.74
2023-01-20T01:55:38.048Z,991.74
2023-01-20T01:55:48.267Z,991.75
2023-01-20T01:55:58.506Z,991.75
2023-01-20T01:56:08.737Z,991.76
2023-01-20T01:56:18.984Z,991.76
2023-01-20T01:56:29.218Z,991.76
2023-01-20T01:56:39.459Z,991.76
2023-01-20T01:56:49.701Z,991.77
2023-01-20T01:56:59.953Z,991.77
2023-01-20T01:57:10.185Z,991.77
2023-01-20T01:57:20.421Z,991.77
2023-01-20T01:57:30.659Z,991.77
2023-01-20T01:57:40.891Z,991.78
2023-01-20T01:57:51.144Z,991.78
2023-01-20T01:58:01.374Z,991.78
2023-01-20T01:58:11.624Z,991.79
2023-01-20T01:58:21.885Z,991.79
2023-01-20T01:58:32.118Z,991.79
2023-01-20T01:58:42.329Z,991.79
2023-01-20T01:58:52.610Z,991.79
2023-01-20T01:59:02.851Z,991.80
2023-01-20T01:59:13.087Z,991.80
2023-01-20T01:59:23.322Z,991.80
2023-01-20T01:59:33.553Z,991.81
2023-01-20T01:59:43.815Z,991.81
2023-01-20T01:59:54.165Z,991.82
2023-01-20T02:00:04.428Z,991.82
2023-01-20T02:00:14.670Z,991.82
2023-01-20T02:00:24.891Z,991.82
2023-01-20T02:00:35.221Z,991.82
2023-01-20T02:00:45.500Z,991.82
2023-01-20T02:00:55.769Z,991.82
2023-01-20T02:01:06.066Z,991.82
2023-01-20T02:01:16.403Z,991.83
2023-01-20T02:01:26.768Z,991.83
2023-01-20T02:01:37.084Z,991.83
2023-01-20T02:01:47.461Z,991.84
2023-01-20T02:01:57.819Z,991.84
2023-01-20T02:02:08.108Z,991.84
2023-01-20T02:02:18.410Z,991.84
2023-01-20T02:02:28.694Z,991.84
2023-01-20T02:02:38.970Z,991.84
2023-01-20T02:02:49.200Z,991.85
2023-01-20T02:02:59.450Z,991.84
2023-01-20T02:03:09.667Z,991.85
2023-01-20T02:03:19.910Z,991.85
2023-01-20T02:03:30.151Z,991.85
2023-01-20T02:03:40.384Z,991.85
2023-01-20T02:03:50.615Z,991.85
2023-01-20T02:04:00.866Z,991.85
2023-01-20T02:04:11.108Z,991.85
2023-01-20T02:04:21.331Z,991.85
2023-01-20T02:04:31.568Z,991.85
2023-01-20T02:04:41.818Z,991.85
2023-01-20T02:04:52.064Z,991.85
2023-01-20T02:05:02.303Z,991.85
2023-01-20T02:05:12.565Z,991.86
2023-01-20T02:05:22.784Z,991.86
2023-01-20T02:05:33.027Z,991.86
2023-01-20T02:05:43.337Z,991.86
2023-01-20T02:05:53.590Z,991.86
2023-01-20T02:06:03.859Z,991.86
2023-01-20T02:06:14.082Z,991.86
2023-01-20T02:06:24.335Z,991.86
2023-01-20T02:06:34.599Z,991.86
2023-01-20T02:06:44.809Z,991.86
2023-01-20T02:06:55.049Z,991.86
2023-01-20T02:07:05.287Z,991.86
2023-01-20T02:07:15.518Z,991.86
2023-01-20T02:07:25.758Z,991.85
2023-01-20T02:07:35.985Z,991.85
2023-01-20T02:07:46.249Z,991.85